sensor_id;sensor_type;location;lat;lon;timestamp;P1;durP1;ratioP1;P2;durP2;ratioP2
65599;SDS011;52272;-29.642;-50.764;2022-11-12T00:00:28;29.98;;;11.60;;
65599;SDS011;52272;-29.642;-50.764;2022-11-12T00:03:17;25.98;;;10.60;;
65599;SDS011;52272;-29.642;-50.764;2022-11-12T00:06:06;21.58;;;10.32;;
65599;SDS011;52272;-29.642;-50.764;2022-11-12T00:08:54;18.42;;;10.02;;
65599;SDS011;52272;-29.642;-50.764;2022-11-12T00:11:43;25.80;;;10.70;;
65599;SDS011;52272;-29.642;-50.764;2022-11-12T00:14:31;19.40;;;10.68;;
65599;SDS011;52272;-29.642;-50.764;2022-11-12T00:17:20;25.23;;;10.18;;
65599;SDS011;52272;-29.642;-50.764;2022-11-12T00:20:08;23.85;;;11.00;;
65599;SDS011;52272;-29.642;-50.764;2022-11-12T00:22:58;20.35;;;10.85;;
65599;SDS011;52272;-29.642;-50.764;2022-11-12T00:25:46;26.23;;;11.77;;
65599;SDS011;52272;-29.642;-50.764;2022-11-12T00:28:35;22.88;;;11.25;;
65599;SDS011;52272;-29.642;-50.764;2022-11-12T00:31:25;24.33;;;12.77;;
65599;SDS011;52272;-29.642;-50.764;2022-11-12T00:34:13;20.48;;;11.38;;
65599;SDS011;52272;-29.642;-50.764;2022-11-12T00:37:03;17.70;;;10.75;;
65599;SDS011;52272;-29.642;-50.764;2022-11-12T00:39:52;19.90;;;10.45;;
65599;SDS011;52272;-29.642;-50.764;2022-11-12T00:42:40;18.95;;;9.95;;
65599;SDS011;52272;-29.642;-50.764;2022-11-12T00:45:29;21.77;;;10.52;;
65599;SDS011;52272;-29.642;-50.764;2022-11-12T00:48:17;20.20;;;11.30;;
65599;SDS011;52272;-29.642;-50.764;2022-11-12T00:51:06;22.15;;;11.32;;
65599;SDS011;52272;-29.642;-50.764;2022-11-12T00:53:54;21.17;;;12.70;;
65599;SDS011;52272;-29.642;-50.764;2022-11-12T00:56:44;22.65;;;12.77;;
65599;SDS011;52272;-29.642;-50.764;2022-11-12T00:59:33;21.63;;;12.45;;
65599;SDS011;52272;-29.642;-50.764;2022-11-12T01:02:22;21.52;;;11.65;;
65599;SDS011;52272;-29.642;-50.764;2022-11-12T01:05:10;20.67;;;12.55;;
65599;SDS011;52272;-29.642;-50.764;2022-11-12T01:07:59;24.92;;;11.43;;
65599;SDS011;52272;-29.642;-50.764;2022-11-12T01:10:49;21.45;;;11.20;;
65599;SDS011;52272;-29.642;-50.764;2022-11-12T01:13:38;25.40;;;13.35;;
65599;SDS011;52272;-29.642;-50.764;2022-11-12T01:16:30;27.52;;;14.18;;
65599;SDS011;52272;-29.642;-50.764;2022-11-12T01:19:22;27.33;;;13.40;;
65599;SDS011;52272;-29.642;-50.764;2022-11-12T01:22:11;33.20;;;14.70;;
65599;SDS011;52272;-29.642;-50.764;2022-11-12T01:25:00;27.92;;;13.45;;
65599;SDS011;52272;-29.642;-50.764;2022-11-12T01:27:48;30.70;;;14.60;;
65599;SDS011;52272;-29.642;-50.764;2022-11-12T01:30:37;28.63;;;14.68;;
65599;SDS011;52272;-29.642;-50.764;2022-11-12T01:33:25;29.45;;;15.40;;
65599;SDS011;52272;-29.642;-50.764;2022-11-12T01:36:14;26.58;;;15.88;;
65599;SDS011;52272;-29.642;-50.764;2022-11-12T01:39:04;25.58;;;14.68;;
65599;SDS011;52272;-29.642;-50.764;2022-11-12T01:41:54;31.75;;;18.27;;
65599;SDS011;52272;-29.642;-50.764;2022-11-12T01:44:43;27.80;;;14.95;;
65599;SDS011;52272;-29.642;-50.764;2022-11-12T01:47:33;29.08;;;16.10;;
65599;SDS011;52272;-29.642;-50.764;2022-11-12T01:50:40;24.80;;;13.98;;
65599;SDS011;52272;-29.642;-50.764;2022-11-12T01:53:29;23.08;;;13.80;;
65599;SDS011;52272;-29.642;-50.764;2022-11-12T01:56:19;21.48;;;13.90;;
65599;SDS011;52272;-29.642;-50.764;2022-11-12T01:59:11;24.27;;;15.77;;
65599;SDS011;52272;-29.642;-50.764;2022-11-12T02:02:03;25.88;;;16.20;;
65599;SDS011;52272;-29.642;-50.764;2022-11-12T02:04:52;27.30;;;15.57;;
65599;SDS011;52272;-29.642;-50.764;2022-11-12T02:07:41;24.15;;;15.48;;
65599;SDS011;52272;-29.642;-50.764;2022-11-12T02:10:33;27.90;;;15.45;;
65599;SDS011;52272;-29.642;-50.764;2022-11-12T02:13:21;24.75;;;14.63;;
65599;SDS011;52272;-29.642;-50.764;2022-11-12T02:16:31;28.25;;;15.32;;
65599;SDS011;52272;-29.642;-50.764;2022-11-12T02:19:24;28.40;;;15.13;;
65599;SDS011;52272;-29.642;-50.764;2022-11-12T02:22:13;29.75;;;15.55;;
65599;SDS011;52272;-29.642;-50.764;2022-11-12T02:25:01;29.23;;;15.88;;
65599;SDS011;52272;-29.642;-50.764;2022-11-12T02:27:50;38.25;;;18.85;;
65599;SDS011;52272;-29.642;-50.764;2022-11-12T02:30:47;40.17;;;18.83;;
65599;SDS011;52272;-29.642;-50.764;2022-11-12T02:33:36;35.05;;;18.63;;
65599;SDS011;52272;-29.642;-50.764;2022-11-12T02:36:25;41.53;;;19.10;;
65599;SDS011;52272;-29.642;-50.764;2022-11-12T02:39:14;21.08;;;14.40;;
65599;SDS011;52272;-29.642;-50.764;2022-11-12T02:42:03;21.77;;;14.30;;
65599;SDS011;52272;-29.642;-50.764;2022-11-12T02:44:52;27.80;;;16.08;;
65599;SDS011;52272;-29.642;-50.764;2022-11-12T02:47:40;22.85;;;15.60;;
65599;SDS011;52272;-29.642;-50.764;2022-11-12T02:50:29;29.40;;;17.48;;
65599;SDS011;52272;-29.642;-50.764;2022-11-12T02:53:17;36.33;;;19.15;;
65599;SDS011;52272;-29.642;-50.764;2022-11-12T02:56:06;36.10;;;20.23;;
65599;SDS011;52272;-29.642;-50.764;2022-11-12T02:58:54;38.30;;;19.33;;
65599;SDS011;52272;-29.642;-50.764;2022-11-12T03:01:43;32.13;;;18.83;;
65599;SDS011;52272;-29.642;-50.764;2022-11-12T03:04:31;32.90;;;19.45;;
65599;SDS011;52272;-29.642;-50.764;2022-11-12T03:07:20;34.90;;;18.88;;
65599;SDS011;52272;-29.642;-50.764;2022-11-12T03:10:08;41.15;;;19.00;;
65599;SDS011;52272;-29.642;-50.764;2022-11-12T03:12:58;38.13;;;18.63;;
65599;SDS011;52272;-29.642;-50.764;2022-11-12T03:15:47;36.58;;;20.50;;
65599;SDS011;52272;-29.642;-50.764;2022-11-12T03:18:36;28.35;;;17.30;;
65599;SDS011;52272;-29.642;-50.764;2022-11-12T03:21:24;32.00;;;19.15;;
65599;SDS011;52272;-29.642;-50.764;2022-11-12T03:24:13;27.23;;;17.73;;
65599;SDS011;52272;-29.642;-50.764;2022-11-12T03:27:01;29.80;;;18.02;;
65599;SDS011;52272;-29.642;-50.764;2022-11-12T03:29:50;32.65;;;19.45;;
65599;SDS011;52272;-29.642;-50.764;2022-11-12T03:32:40;29.10;;;17.08;;
65599;SDS011;52272;-29.642;-50.764;2022-11-12T03:35:29;31.00;;;18.02;;
65599;SDS011;52272;-29.642;-50.764;2022-11-12T03:38:18;23.40;;;14.93;;
65599;SDS011;52272;-29.642;-50.764;2022-11-12T03:41:07;33.03;;;17.33;;
65599;SDS011;52272;-29.642;-50.764;2022-11-12T03:43:55;25.15;;;16.00;;
65599;SDS011;52272;-29.642;-50.764;2022-11-12T03:46:47;30.10;;;16.27;;
65599;SDS011;52272;-29.642;-50.764;2022-11-12T03:49:35;30.55;;;18.45;;
65599;SDS011;52272;-29.642;-50.764;2022-11-12T03:52:24;26.73;;;17.20;;
65599;SDS011;52272;-29.642;-50.764;2022-11-12T03:55:13;25.58;;;16.85;;
65599;SDS011;52272;-29.642;-50.764;2022-11-12T03:58:05;30.17;;;17.33;;
65599;SDS011;52272;-29.642;-50.764;2022-11-12T04:00:53;26.25;;;16.00;;
65599;SDS011;52272;-29.642;-50.764;2022-11-12T04:03:42;30.63;;;16.10;;
65599;SDS011;52272;-29.642;-50.764;2022-11-12T04:06:30;31.88;;;16.63;;
65599;SDS011;52272;-29.642;-50.764;2022-11-12T04:09:37;28.92;;;18.10;;
65599;SDS011;52272;-29.642;-50.764;2022-11-12T04:12:26;28.75;;;16.88;;
65599;SDS011;52272;-29.642;-50.764;2022-11-12T04:15:32;26.70;;;16.35;;
65599;SDS011;52272;-29.642;-50.764;2022-11-12T04:18:21;28.83;;;16.30;;
65599;SDS011;52272;-29.642;-50.764;2022-11-12T04:21:29;30.85;;;17.38;;
65599;SDS011;52272;-29.642;-50.764;2022-11-12T04:24:38;22.42;;;14.63;;
65599;SDS011;52272;-29.642;-50.764;2022-11-12T04:27:46;26.10;;;16.10;;
65599;SDS011;52272;-29.642;-50.764;2022-11-12T04:30:35;24.73;;;15.20;;
65599;SDS011;52272;-29.642;-50.764;2022-11-12T04:33:23;30.90;;;16.85;;
65599;SDS011;52272;-29.642;-50.764;2022-11-12T04:36:12;23.90;;;14.55;;
65599;SDS011;52272;-29.642;-50.764;2022-11-12T04:39:01;21.27;;;14.23;;
65599;SDS011;52272;-29.642;-50.764;2022-11-12T04:41:49;22.77;;;13.63;;
65599;SDS011;52272;-29.642;-50.764;2022-11-12T04:44:56;21.48;;;13.50;;
65599;SDS011;52272;-29.642;-50.764;2022-11-12T04:47:49;27.90;;;17.50;;
65599;SDS011;52272;-29.642;-50.764;2022-11-12T04:50:38;25.38;;;15.57;;
65599;SDS011;52272;-29.642;-50.764;2022-11-12T04:53:28;21.90;;;14.20;;
65599;SDS011;52272;-29.642;-50.764;2022-11-12T04:56:17;22.83;;;14.15;;
65599;SDS011;52272;-29.642;-50.764;2022-11-12T04:59:06;21.08;;;13.95;;
65599;SDS011;52272;-29.642;-50.764;2022-11-12T05:01:54;22.20;;;13.63;;
65599;SDS011;52272;-29.642;-50.764;2022-11-12T05:04:43;19.90;;;13.07;;
65599;SDS011;52272;-29.642;-50.764;2022-11-12T05:07:32;23.13;;;14.15;;
65599;SDS011;52272;-29.642;-50.764;2022-11-12T05:10:20;29.25;;;16.80;;
65599;SDS011;52272;-29.642;-50.764;2022-11-12T05:13:09;27.13;;;14.98;;
65599;SDS011;52272;-29.642;-50.764;2022-11-12T05:15:58;26.00;;;14.70;;
65599;SDS011;52272;-29.642;-50.764;2022-11-12T05:18:47;21.98;;;14.20;;
65599;SDS011;52272;-29.642;-50.764;2022-11-12T05:21:35;20.95;;;13.82;;
65599;SDS011;52272;-29.642;-50.764;2022-11-12T05:24:42;24.58;;;14.18;;
65599;SDS011;52272;-29.642;-50.764;2022-11-12T05:27:31;20.88;;;14.25;;
65599;SDS011;52272;-29.642;-50.764;2022-11-12T05:30:21;20.83;;;14.00;;
65599;SDS011;52272;-29.642;-50.764;2022-11-12T05:33:09;21.98;;;13.48;;
65599;SDS011;52272;-29.642;-50.764;2022-11-12T05:35:58;23.05;;;15.27;;
65599;SDS011;52272;-29.642;-50.764;2022-11-12T05:38:46;22.83;;;14.48;;
65599;SDS011;52272;-29.642;-50.764;2022-11-12T05:41:38;20.30;;;14.13;;
65599;SDS011;52272;-29.642;-50.764;2022-11-12T05:44:46;18.67;;;13.70;;
65599;SDS011;52272;-29.642;-50.764;2022-11-12T05:47:35;19.02;;;12.23;;
65599;SDS011;52272;-29.642;-50.764;2022-11-12T05:50:23;19.08;;;12.95;;
65599;SDS011;52272;-29.642;-50.764;2022-11-12T05:53:25;20.10;;;13.18;;
65599;SDS011;52272;-29.642;-50.764;2022-11-12T05:56:13;20.58;;;13.18;;
65599;SDS011;52272;-29.642;-50.764;2022-11-12T05:59:03;20.58;;;13.20;;
65599;SDS011;52272;-29.642;-50.764;2022-11-12T06:01:54;26.08;;;14.82;;
65599;SDS011;52272;-29.642;-50.764;2022-11-12T06:04:45;28.35;;;15.63;;
65599;SDS011;52272;-29.642;-50.764;2022-11-12T06:07:33;21.75;;;13.98;;
65599;SDS011;52272;-29.642;-50.764;2022-11-12T06:10:22;24.42;;;15.68;;
65599;SDS011;52272;-29.642;-50.764;2022-11-12T06:13:11;28.73;;;16.27;;
65599;SDS011;52272;-29.642;-50.764;2022-11-12T06:15:59;24.80;;;16.52;;
65599;SDS011;52272;-29.642;-50.764;2022-11-12T06:18:48;33.20;;;17.05;;
65599;SDS011;52272;-29.642;-50.764;2022-11-12T06:21:37;30.35;;;17.85;;
65599;SDS011;52272;-29.642;-50.764;2022-11-12T06:24:25;33.50;;;16.95;;
65599;SDS011;52272;-29.642;-50.764;2022-11-12T06:27:21;29.17;;;17.35;;
65599;SDS011;52272;-29.642;-50.764;2022-11-12T06:30:10;31.25;;;17.25;;
65599;SDS011;52272;-29.642;-50.764;2022-11-12T06:32:59;26.08;;;17.70;;
65599;SDS011;52272;-29.642;-50.764;2022-11-12T06:35:54;28.85;;;17.20;;
65599;SDS011;52272;-29.642;-50.764;2022-11-12T06:38:49;26.77;;;16.75;;
65599;SDS011;52272;-29.642;-50.764;2022-11-12T06:41:38;21.80;;;14.88;;
65599;SDS011;52272;-29.642;-50.764;2022-11-12T06:44:27;21.08;;;15.32;;
65599;SDS011;52272;-29.642;-50.764;2022-11-12T06:47:16;20.00;;;15.65;;
65599;SDS011;52272;-29.642;-50.764;2022-11-12T06:50:04;21.75;;;14.77;;
65599;SDS011;52272;-29.642;-50.764;2022-11-12T06:52:56;21.98;;;14.77;;
65599;SDS011;52272;-29.642;-50.764;2022-11-12T06:55:48;18.48;;;13.05;;
65599;SDS011;52272;-29.642;-50.764;2022-11-12T06:58:37;22.77;;;13.15;;
65599;SDS011;52272;-29.642;-50.764;2022-11-12T07:01:25;18.00;;;13.18;;
65599;SDS011;52272;-29.642;-50.764;2022-11-12T07:04:14;19.27;;;13.57;;
65599;SDS011;52272;-29.642;-50.764;2022-11-12T07:07:02;19.35;;;13.43;;
65599;SDS011;52272;-29.642;-50.764;2022-11-12T07:09:56;17.95;;;12.90;;
65599;SDS011;52272;-29.642;-50.764;2022-11-12T07:12:44;19.70;;;13.43;;
65599;SDS011;52272;-29.642;-50.764;2022-11-12T07:15:38;16.70;;;12.18;;
65599;SDS011;52272;-29.642;-50.764;2022-11-12T07:18:27;16.98;;;11.55;;
65599;SDS011;52272;-29.642;-50.764;2022-11-12T07:21:17;20.65;;;11.63;;
65599;SDS011;52272;-29.642;-50.764;2022-11-12T07:24:07;17.70;;;10.75;;
65599;SDS011;52272;-29.642;-50.764;2022-11-12T07:26:56;19.83;;;11.57;;
65599;SDS011;52272;-29.642;-50.764;2022-11-12T07:29:44;18.85;;;11.60;;
65599;SDS011;52272;-29.642;-50.764;2022-11-12T07:32:34;17.65;;;11.70;;
65599;SDS011;52272;-29.642;-50.764;2022-11-12T07:35:30;17.30;;;11.90;;
65599;SDS011;52272;-29.642;-50.764;2022-11-12T07:38:19;18.83;;;11.88;;
65599;SDS011;52272;-29.642;-50.764;2022-11-12T07:41:11;14.35;;;11.40;;
65599;SDS011;52272;-29.642;-50.764;2022-11-12T07:44:05;16.10;;;11.98;;
65599;SDS011;52272;-29.642;-50.764;2022-11-12T07:46:54;17.90;;;11.70;;
65599;SDS011;52272;-29.642;-50.764;2022-11-12T07:49:42;15.13;;;11.23;;
65599;SDS011;52272;-29.642;-50.764;2022-11-12T07:52:31;16.08;;;9.40;;
65599;SDS011;52272;-29.642;-50.764;2022-11-12T07:55:20;14.63;;;10.40;;
65599;SDS011;52272;-29.642;-50.764;2022-11-12T07:58:08;16.52;;;9.77;;
65599;SDS011;52272;-29.642;-50.764;2022-11-12T08:00:57;23.35;;;12.88;;
65599;SDS011;52272;-29.642;-50.764;2022-11-12T08:03:53;18.10;;;11.38;;
65599;SDS011;52272;-29.642;-50.764;2022-11-12T08:06:42;16.60;;;11.13;;
65599;SDS011;52272;-29.642;-50.764;2022-11-12T08:09:30;19.40;;;11.68;;
65599;SDS011;52272;-29.642;-50.764;2022-11-12T08:12:19;16.63;;;11.48;;
65599;SDS011;52272;-29.642;-50.764;2022-11-12T08:15:07;16.98;;;11.10;;
65599;SDS011;52272;-29.642;-50.764;2022-11-12T08:17:56;15.80;;;10.25;;
65599;SDS011;52272;-29.642;-50.764;2022-11-12T08:20:44;16.40;;;11.35;;
65599;SDS011;52272;-29.642;-50.764;2022-11-12T08:23:33;25.83;;;13.93;;
65599;SDS011;52272;-29.642;-50.764;2022-11-12T08:26:21;22.38;;;14.10;;
65599;SDS011;52272;-29.642;-50.764;2022-11-12T08:29:10;21.05;;;13.43;;
65599;SDS011;52272;-29.642;-50.764;2022-11-12T08:31:59;17.50;;;11.73;;
65599;SDS011;52272;-29.642;-50.764;2022-11-12T08:34:47;16.67;;;11.50;;
65599;SDS011;52272;-29.642;-50.764;2022-11-12T08:37:36;17.33;;;12.10;;
65599;SDS011;52272;-29.642;-50.764;2022-11-12T08:40:24;17.38;;;12.00;;
65599;SDS011;52272;-29.642;-50.764;2022-11-12T08:43:14;18.27;;;13.02;;
65599;SDS011;52272;-29.642;-50.764;2022-11-12T08:46:03;16.42;;;11.95;;
65599;SDS011;52272;-29.642;-50.764;2022-11-12T08:48:51;21.08;;;13.13;;
65599;SDS011;52272;-29.642;-50.764;2022-11-12T08:51:40;19.73;;;13.77;;
65599;SDS011;52272;-29.642;-50.764;2022-11-12T08:54:29;16.45;;;11.88;;
65599;SDS011;52272;-29.642;-50.764;2022-11-12T08:57:18;20.85;;;12.93;;
65599;SDS011;52272;-29.642;-50.764;2022-11-12T09:00:06;15.18;;;10.73;;
65599;SDS011;52272;-29.642;-50.764;2022-11-12T09:02:59;18.67;;;12.65;;
65599;SDS011;52272;-29.642;-50.764;2022-11-12T09:05:52;18.48;;;12.50;;
65599;SDS011;52272;-29.642;-50.764;2022-11-12T09:08:42;17.58;;;13.65;;
65599;SDS011;52272;-29.642;-50.764;2022-11-12T09:11:30;22.50;;;13.90;;
65599;SDS011;52272;-29.642;-50.764;2022-11-12T09:14:19;17.85;;;13.77;;
65599;SDS011;52272;-29.642;-50.764;2022-11-12T09:17:08;19.42;;;14.00;;
65599;SDS011;52272;-29.642;-50.764;2022-11-12T09:19:56;20.50;;;14.10;;
65599;SDS011;52272;-29.642;-50.764;2022-11-12T09:22:45;21.80;;;14.77;;
65599;SDS011;52272;-29.642;-50.764;2022-11-12T09:25:36;21.67;;;15.13;;
65599;SDS011;52272;-29.642;-50.764;2022-11-12T09:28:24;21.20;;;14.90;;
65599;SDS011;52272;-29.642;-50.764;2022-11-12T09:31:14;18.90;;;13.52;;
65599;SDS011;52272;-29.642;-50.764;2022-11-12T09:34:03;19.73;;;13.55;;
65599;SDS011;52272;-29.642;-50.764;2022-11-12T09:36:53;18.83;;;12.20;;
65599;SDS011;52272;-29.642;-50.764;2022-11-12T09:39:42;17.58;;;11.75;;
65599;SDS011;52272;-29.642;-50.764;2022-11-12T09:42:30;18.65;;;11.57;;
65599;SDS011;52272;-29.642;-50.764;2022-11-12T09:45:29;16.67;;;10.80;;
65599;SDS011;52272;-29.642;-50.764;2022-11-12T09:48:21;15.10;;;10.27;;
65599;SDS011;52272;-29.642;-50.764;2022-11-12T09:51:27;14.88;;;10.52;;
65599;SDS011;52272;-29.642;-50.764;2022-11-12T09:57:09;15.98;;;10.55;;
65599;SDS011;52272;-29.642;-50.764;2022-11-12T09:59:59;14.93;;;10.15;;
65599;SDS011;52272;-29.642;-50.764;2022-11-12T10:09:22;15.45;;;10.55;;
65599;SDS011;52272;-29.642;-50.764;2022-11-12T10:24:50;13.85;;;9.90;;
65599;SDS011;52272;-29.642;-50.764;2022-11-12T10:27:40;15.02;;;9.27;;
65599;SDS011;52272;-29.642;-50.764;2022-11-12T10:30:29;16.00;;;9.05;;
65599;SDS011;52272;-29.642;-50.764;2022-11-12T10:33:18;15.88;;;9.07;;
65599;SDS011;52272;-29.642;-50.764;2022-11-12T10:39:34;13.13;;;8.13;;
65599;SDS011;52272;-29.642;-50.764;2022-11-12T10:42:24;11.93;;;8.30;;
65599;SDS011;52272;-29.642;-50.764;2022-11-12T10:45:20;12.40;;;8.40;;
65599;SDS011;52272;-29.642;-50.764;2022-11-12T10:48:23;16.17;;;8.82;;
65599;SDS011;52272;-29.642;-50.764;2022-11-12T10:51:38;11.65;;;7.75;;
65599;SDS011;52272;-29.642;-50.764;2022-11-12T10:54:28;11.05;;;7.78;;
65599;SDS011;52272;-29.642;-50.764;2022-11-12T10:57:23;11.30;;;7.90;;
65599;SDS011;52272;-29.642;-50.764;2022-11-12T11:08:45;12.00;;;7.03;;
65599;SDS011;52272;-29.642;-50.764;2022-11-12T11:11:36;11.32;;;6.65;;
65599;SDS011;52272;-29.642;-50.764;2022-11-12T11:14:34;15.30;;;7.10;;
65599;SDS011;52272;-29.642;-50.764;2022-11-12T11:17:24;10.93;;;7.40;;
65599;SDS011;52272;-29.642;-50.764;2022-11-12T11:23:30;9.23;;;6.47;;
65599;SDS011;52272;-29.642;-50.764;2022-11-12T11:30:07;9.02;;;6.45;;
65599;SDS011;52272;-29.642;-50.764;2022-11-12T11:36:05;10.07;;;6.72;;
65599;SDS011;52272;-29.642;-50.764;2022-11-12T11:38:58;9.55;;;5.85;;
65599;SDS011;52272;-29.642;-50.764;2022-11-12T11:47:56;7.47;;;5.15;;
65599;SDS011;52272;-29.642;-50.764;2022-11-12T11:54:00;5.10;;;4.55;;
65599;SDS011;52272;-29.642;-50.764;2022-11-12T11:57:01;7.45;;;4.20;;
65599;SDS011;52272;-29.642;-50.764;2022-11-12T12:00:13;5.75;;;4.25;;
65599;SDS011;52272;-29.642;-50.764;2022-11-12T12:06:37;5.60;;;3.80;;
65599;SDS011;52272;-29.642;-50.764;2022-11-12T12:22:08;8.82;;;4.05;;
65599;SDS011;52272;-29.642;-50.764;2022-11-12T12:25:07;5.63;;;4.00;;
65599;SDS011;52272;-29.642;-50.764;2022-11-12T12:31:20;8.80;;;3.88;;
65599;SDS011;52272;-29.642;-50.764;2022-11-12T12:34:20;6.45;;;3.95;;
65599;SDS011;52272;-29.642;-50.764;2022-11-12T12:43:32;7.15;;;3.70;;
65599;SDS011;52272;-29.642;-50.764;2022-11-12T12:46:26;5.88;;;3.90;;
65599;SDS011;52272;-29.642;-50.764;2022-11-12T12:49:31;10.77;;;4.25;;
65599;SDS011;52272;-29.642;-50.764;2022-11-12T12:52:23;8.45;;;3.90;;
65599;SDS011;52272;-29.642;-50.764;2022-11-12T12:55:54;7.57;;;4.07;;
65599;SDS011;52272;-29.642;-50.764;2022-11-12T12:58:45;5.20;;;3.55;;
65599;SDS011;52272;-29.642;-50.764;2022-11-12T13:01:35;6.72;;;3.78;;
65599;SDS011;52272;-29.642;-50.764;2022-11-12T13:07:44;11.32;;;3.92;;
65599;SDS011;52272;-29.642;-50.764;2022-11-12T13:13:27;5.95;;;3.45;;
65599;SDS011;52272;-29.642;-50.764;2022-11-12T13:19:47;4.45;;;3.08;;
65599;SDS011;52272;-29.642;-50.764;2022-11-12T13:22:57;5.47;;;3.15;;
65599;SDS011;52272;-29.642;-50.764;2022-11-12T13:25:46;5.68;;;3.08;;
65599;SDS011;52272;-29.642;-50.764;2022-11-12T13:28:34;5.13;;;3.70;;
65599;SDS011;52272;-29.642;-50.764;2022-11-12T13:31:24;6.78;;;3.47;;
65599;SDS011;52272;-29.642;-50.764;2022-11-12T13:34:18;5.53;;;3.10;;
65599;SDS011;52272;-29.642;-50.764;2022-11-12T13:37:15;3.92;;;3.22;;
65599;SDS011;52272;-29.642;-50.764;2022-11-12T13:40:11;5.32;;;2.67;;
65599;SDS011;52272;-29.642;-50.764;2022-11-12T13:49:05;4.22;;;3.17;;
65599;SDS011;52272;-29.642;-50.764;2022-11-12T13:51:59;4.57;;;2.70;;
65599;SDS011;52272;-29.642;-50.764;2022-11-12T13:54:59;5.38;;;3.00;;
65599;SDS011;52272;-29.642;-50.764;2022-11-12T13:57:52;5.85;;;3.10;;
65599;SDS011;52272;-29.642;-50.764;2022-11-12T14:00:49;5.53;;;2.78;;
65599;SDS011;52272;-29.642;-50.764;2022-11-12T14:03:46;5.43;;;3.10;;
65599;SDS011;52272;-29.642;-50.764;2022-11-12T14:06:37;4.03;;;3.17;;
65599;SDS011;52272;-29.642;-50.764;2022-11-12T14:12:51;3.40;;;2.83;;
65599;SDS011;52272;-29.642;-50.764;2022-11-12T14:15:48;5.60;;;3.05;;
65599;SDS011;52272;-29.642;-50.764;2022-11-12T14:21:58;6.97;;;3.00;;
65599;SDS011;52272;-29.642;-50.764;2022-11-12T14:25:00;6.65;;;2.53;;
65599;SDS011;52272;-29.642;-50.764;2022-11-12T14:27:49;6.93;;;2.78;;
65599;SDS011;52272;-29.642;-50.764;2022-11-12T14:30:43;4.70;;;3.00;;
65599;SDS011;52272;-29.642;-50.764;2022-11-12T14:33:31;5.57;;;2.65;;
65599;SDS011;52272;-29.642;-50.764;2022-11-12T14:36:20;4.65;;;3.10;;
65599;SDS011;52272;-29.642;-50.764;2022-11-12T14:39:09;3.17;;;2.88;;
65599;SDS011;52272;-29.642;-50.764;2022-11-12T14:41:59;4.25;;;2.83;;
65599;SDS011;52272;-29.642;-50.764;2022-11-12T14:44:48;5.78;;;3.00;;
65599;SDS011;52272;-29.642;-50.764;2022-11-12T14:47:37;4.13;;;2.85;;
65599;SDS011;52272;-29.642;-50.764;2022-11-12T14:50:31;5.60;;;3.90;;
65599;SDS011;52272;-29.642;-50.764;2022-11-12T14:53:26;4.53;;;2.78;;
65599;SDS011;52272;-29.642;-50.764;2022-11-12T14:59:21;5.68;;;2.95;;
65599;SDS011;52272;-29.642;-50.764;2022-11-12T15:05:22;4.05;;;2.70;;
65599;SDS011;52272;-29.642;-50.764;2022-11-12T15:08:11;6.25;;;2.78;;
65599;SDS011;52272;-29.642;-50.764;2022-11-12T15:14:30;6.40;;;3.00;;
65599;SDS011;52272;-29.642;-50.764;2022-11-12T15:17:32;4.65;;;2.83;;
65599;SDS011;52272;-29.642;-50.764;2022-11-12T15:23:15;4.38;;;2.70;;
65599;SDS011;52272;-29.642;-50.764;2022-11-12T15:26:10;3.10;;;2.63;;
65599;SDS011;52272;-29.642;-50.764;2022-11-12T15:34:48;3.35;;;2.45;;
65599;SDS011;52272;-29.642;-50.764;2022-11-12T15:37:39;3.63;;;2.47;;
65599;SDS011;52272;-29.642;-50.764;2022-11-12T15:40:31;4.50;;;2.83;;
65599;SDS011;52272;-29.642;-50.764;2022-11-12T15:43:34;2.88;;;2.67;;
65599;SDS011;52272;-29.642;-50.764;2022-11-12T15:46:23;4.90;;;2.70;;
65599;SDS011;52272;-29.642;-50.764;2022-11-12T15:49:11;3.25;;;2.90;;
65599;SDS011;52272;-29.642;-50.764;2022-11-12T15:52:00;2.75;;;2.53;;
65599;SDS011;52272;-29.642;-50.764;2022-11-12T15:54:51;4.22;;;2.75;;
65599;SDS011;52272;-29.642;-50.764;2022-11-12T15:57:43;4.20;;;2.63;;
65599;SDS011;52272;-29.642;-50.764;2022-11-12T16:00:37;3.30;;;2.70;;
65599;SDS011;52272;-29.642;-50.764;2022-11-12T16:03:26;3.00;;;2.80;;
65599;SDS011;52272;-29.642;-50.764;2022-11-12T16:06:15;4.28;;;2.88;;
65599;SDS011;52272;-29.642;-50.764;2022-11-12T16:09:04;2.90;;;2.60;;
65599;SDS011;52272;-29.642;-50.764;2022-11-12T16:11:52;3.63;;;2.80;;
65599;SDS011;52272;-29.642;-50.764;2022-11-12T16:14:44;4.10;;;3.10;;
65599;SDS011;52272;-29.642;-50.764;2022-11-12T16:17:32;4.15;;;2.67;;
65599;SDS011;52272;-29.642;-50.764;2022-11-12T16:20:24;3.22;;;2.72;;
65599;SDS011;52272;-29.642;-50.764;2022-11-12T16:23:14;5.03;;;2.50;;
65599;SDS011;52272;-29.642;-50.764;2022-11-12T16:26:04;3.25;;;2.90;;
65599;SDS011;52272;-29.642;-50.764;2022-11-12T16:28:55;4.38;;;3.10;;
65599;SDS011;52272;-29.642;-50.764;2022-11-12T16:31:44;3.60;;;3.15;;
65599;SDS011;52272;-29.642;-50.764;2022-11-12T16:34:33;7.07;;;3.10;;
65599;SDS011;52272;-29.642;-50.764;2022-11-12T16:37:21;3.85;;;3.10;;
65599;SDS011;52272;-29.642;-50.764;2022-11-12T16:40:13;4.60;;;2.75;;
65599;SDS011;52272;-29.642;-50.764;2022-11-12T16:43:05;4.38;;;2.90;;
65599;SDS011;52272;-29.642;-50.764;2022-11-12T16:45:53;4.40;;;3.00;;
65599;SDS011;52272;-29.642;-50.764;2022-11-12T16:48:42;5.72;;;2.95;;
65599;SDS011;52272;-29.642;-50.764;2022-11-12T16:51:30;5.60;;;3.03;;
65599;SDS011;52272;-29.642;-50.764;2022-11-12T16:57:09;6.10;;;3.10;;
65599;SDS011;52272;-29.642;-50.764;2022-11-12T16:59:58;5.80;;;3.35;;
65599;SDS011;52272;-29.642;-50.764;2022-11-12T17:02:46;4.47;;;3.33;;
65599;SDS011;52272;-29.642;-50.764;2022-11-12T17:05:38;6.05;;;2.88;;
65599;SDS011;52272;-29.642;-50.764;2022-11-12T17:08:27;5.35;;;3.10;;
65599;SDS011;52272;-29.642;-50.764;2022-11-12T17:11:19;5.55;;;3.22;;
65599;SDS011;52272;-29.642;-50.764;2022-11-12T17:14:08;5.60;;;2.90;;
65599;SDS011;52272;-29.642;-50.764;2022-11-12T17:16:58;3.75;;;2.88;;
65599;SDS011;52272;-29.642;-50.764;2022-11-12T17:19:46;4.40;;;3.28;;
65599;SDS011;52272;-29.642;-50.764;2022-11-12T17:22:35;5.68;;;2.80;;
65599;SDS011;52272;-29.642;-50.764;2022-11-12T17:25:24;3.05;;;2.72;;
65599;SDS011;52272;-29.642;-50.764;2022-11-12T17:28:12;4.78;;;3.08;;
65599;SDS011;52272;-29.642;-50.764;2022-11-12T17:31:22;5.20;;;2.97;;
65599;SDS011;52272;-29.642;-50.764;2022-11-12T17:34:10;4.90;;;2.97;;
65599;SDS011;52272;-29.642;-50.764;2022-11-12T17:36:58;5.70;;;3.00;;
65599;SDS011;52272;-29.642;-50.764;2022-11-12T17:39:47;5.55;;;3.60;;
65599;SDS011;52272;-29.642;-50.764;2022-11-12T17:42:35;7.13;;;3.10;;
65599;SDS011;52272;-29.642;-50.764;2022-11-12T17:45:24;5.97;;;3.42;;
65599;SDS011;52272;-29.642;-50.764;2022-11-12T17:48:15;6.40;;;3.90;;
65599;SDS011;52272;-29.642;-50.764;2022-11-12T17:51:10;5.00;;;3.17;;
65599;SDS011;52272;-29.642;-50.764;2022-11-12T17:54:00;8.77;;;3.10;;
65599;SDS011;52272;-29.642;-50.764;2022-11-12T17:56:49;5.22;;;3.30;;
65599;SDS011;52272;-29.642;-50.764;2022-11-12T17:59:37;5.57;;;3.20;;
65599;SDS011;52272;-29.642;-50.764;2022-11-12T18:02:26;5.68;;;3.38;;
65599;SDS011;52272;-29.642;-50.764;2022-11-12T18:05:14;6.22;;;3.50;;
65599;SDS011;52272;-29.642;-50.764;2022-11-12T18:08:03;7.03;;;3.55;;
65599;SDS011;52272;-29.642;-50.764;2022-11-12T18:10:51;6.50;;;3.55;;